SPMJK EPKK-EPKT
Flight info
| Callsign | SPMJK |
|---|---|
| Flight time | 0h 42m |
| Altitude | 4000 |
| Route | DCT KAK STAY1/0025 KAK DCT KAX |
| Aircraft | HDJT/L-SABDGRWY/H |
Departure
| Time | 2026-05-05 18:17 |
|---|---|
| Airport | Kraków John Paul II International Airport (EPKK) |
Arrival
| Time | 2026-05-05 19:00 |
|---|---|
| Airport | Katowice Wojciech Korfanty International Airport (EPKT) |
| Time | Latitude | Longitude | Altitude | Speed | Heading |
|---|---|---|---|---|---|
| 2026-05-05 17:43 | 50.07694 | 19.80120 | 783 ft | 0 kts | 347° |
| 2026-05-05 18:07 | 50.07709 | 19.80115 | 784 ft | 8 kts | 347° |
| 2026-05-05 18:08 | 50.07745 | 19.80134 | 784 ft | 6 kts | 67° |
| 2026-05-05 18:08 | 50.07760 | 19.80204 | 784 ft | 8 kts | 78° |
| 2026-05-05 18:08 | 50.07773 | 19.80302 | 784 ft | 11 kts | 76° |
| 2026-05-05 18:08 | 50.07829 | 19.80341 | 784 ft | 9 kts | 347° |
| 2026-05-05 18:09 | 50.07850 | 19.80334 | 784 ft | 0 kts | 347° |
| 2026-05-05 18:15 | 50.07871 | 19.80327 | 784 ft | 8 kts | 347° |
| 2026-05-05 18:15 | 50.07920 | 19.80310 | 784 ft | 14 kts | 347° |
| 2026-05-05 18:15 | 50.08011 | 19.80239 | 784 ft | 14 kts | 293° |
| 2026-05-05 18:15 | 50.08002 | 19.80112 | 784 ft | 0 kts | 257° |
| 2026-05-05 18:17 | 50.07961 | 19.79823 | 783 ft | 62 kts | 257° |
| 2026-05-05 18:17 | 50.07820 | 19.78808 | 838 ft | 124 kts | 257° |
| 2026-05-05 18:17 | 50.07599 | 19.77261 | 1256 ft | 167 kts | 257° |
| 2026-05-05 18:17 | 50.07348 | 19.75334 | 1827 ft | 196 kts | 257° |
| 2026-05-05 18:18 | 50.07092 | 19.73115 | 2406 ft | 215 kts | 257° |
| 2026-05-05 18:18 | 50.06871 | 19.70838 | 2923 ft | 215 kts | 258° |
| 2026-05-05 18:18 | 50.06669 | 19.68524 | 3412 ft | 216 kts | 258° |
| 2026-05-05 18:18 | 50.06475 | 19.66184 | 3904 ft | 220 kts | 258° |
| 2026-05-05 18:19 | 50.06191 | 19.63880 | 4400 ft | 216 kts | 245° |
| 2026-05-05 18:19 | 50.05265 | 19.62135 | 4898 ft | 212 kts | 212° |
| 2026-05-05 18:19 | 50.03837 | 19.61493 | 5027 ft | 221 kts | 182° |
| 2026-05-05 18:19 | 50.02341 | 19.61981 | 5042 ft | 221 kts | 167° |
| 2026-05-05 18:20 | 50.00877 | 19.62736 | 5038 ft | 222 kts | 166° |
| 2026-05-05 18:20 | 49.99401 | 19.63507 | 5040 ft | 221 kts | 166° |
| 2026-05-05 18:20 | 49.97962 | 19.64275 | 5025 ft | 221 kts | 166° |
| 2026-05-05 18:20 | 49.96521 | 19.65154 | 5035 ft | 225 kts | 154° |
| 2026-05-05 18:21 | 49.95434 | 19.66990 | 5032 ft | 241 kts | 122° |
| 2026-05-05 18:21 | 49.95113 | 19.69553 | 5027 ft | 255 kts | 91° |
| 2026-05-05 18:21 | 49.95517 | 19.72270 | 5032 ft | 259 kts | 77° |
| 2026-05-05 18:21 | 49.96074 | 19.74948 | 5035 ft | 260 kts | 76° |
| 2026-05-05 18:22 | 49.96627 | 19.77629 | 5027 ft | 260 kts | 76° |
| 2026-05-05 18:22 | 49.97166 | 19.80282 | 5004 ft | 258 kts | 76° |
| 2026-05-05 18:22 | 49.97713 | 19.82962 | 5003 ft | 259 kts | 76° |
| 2026-05-05 18:22 | 49.98257 | 19.85630 | 5000 ft | 258 kts | 76° |
| 2026-05-05 18:23 | 49.98793 | 19.88253 | 5001 ft | 258 kts | 76° |
| 2026-05-05 18:23 | 49.99334 | 19.90922 | 4998 ft | 259 kts | 76° |
| 2026-05-05 18:23 | 49.99878 | 19.93603 | 5002 ft | 259 kts | 76° |
| 2026-05-05 18:23 | 50.00420 | 19.96277 | 5002 ft | 259 kts | 76° |
| 2026-05-05 18:24 | 50.00952 | 19.98921 | 5004 ft | 258 kts | 76° |
| 2026-05-05 18:24 | 50.01497 | 20.01590 | 4999 ft | 258 kts | 76° |
| 2026-05-05 18:24 | 50.02033 | 20.04256 | 4999 ft | 259 kts | 76° |
| 2026-05-05 18:24 | 50.02572 | 20.06942 | 4879 ft | 259 kts | 76° |
| 2026-05-05 18:25 | 50.03115 | 20.09615 | 4754 ft | 257 kts | 76° |
| 2026-05-05 18:25 | 50.03471 | 20.11375 | 4671 ft | 257 kts | 75° |
| 2026-05-05 18:25 | 50.04767 | 20.14432 | 4502 ft | 255 kts | 37° |
| 2026-05-05 18:25 | 50.06345 | 20.15486 | 4379 ft | 246 kts | 6° |
| 2026-05-05 18:26 | 50.07986 | 20.15227 | 4261 ft | 238 kts | 333° |
| 2026-05-05 18:26 | 50.09271 | 20.13740 | 4155 ft | 227 kts | 306° |
| 2026-05-05 18:26 | 50.10296 | 20.11880 | 4047 ft | 226 kts | 303° |
| 2026-05-05 18:26 | 50.11074 | 20.09805 | 3981 ft | 219 kts | 286° |
| 2026-05-05 18:27 | 50.11467 | 20.07548 | 3937 ft | 213 kts | 272° |
| 2026-05-05 18:27 | 50.11478 | 20.05293 | 3894 ft | 199 kts | 259° |
| 2026-05-05 18:27 | 50.11196 | 20.03238 | 3711 ft | 196 kts | 252° |
| 2026-05-05 18:27 | 50.10895 | 20.01148 | 3463 ft | 198 kts | 255° |
| 2026-05-05 18:28 | 50.10341 | 19.97023 | 2960 ft | 191 kts | 253° |
| 2026-05-05 18:28 | 50.10069 | 19.95051 | 2717 ft | 182 kts | 253° |
| 2026-05-05 18:28 | 50.09800 | 19.93117 | 2470 ft | 183 kts | 255° |
| 2026-05-05 18:29 | 50.09533 | 19.91170 | 2244 ft | 176 kts | 255° |
| 2026-05-05 18:29 | 50.09297 | 19.89429 | 2015 ft | 159 kts | 253° |
| 2026-05-05 18:29 | 50.09073 | 19.87809 | 1801 ft | 146 kts | 254° |
| 2026-05-05 18:29 | 50.08863 | 19.86308 | 1605 ft | 137 kts | 255° |
| 2026-05-05 18:30 | 50.08672 | 19.84911 | 1440 ft | 122 kts | 255° |
| 2026-05-05 18:30 | 50.08510 | 19.83728 | 1280 ft | 109 kts | 255° |
| 2026-05-05 18:30 | 50.08340 | 19.82606 | 1140 ft | 105 kts | 254° |
| 2026-05-05 18:30 | 50.08190 | 19.81504 | 1046 ft | 104 kts | 257° |
| 2026-05-05 18:31 | 50.08035 | 19.80390 | 920 ft | 104 kts | 257° |
| 2026-05-05 18:31 | 50.07888 | 19.79312 | 806 ft | 98 kts | 257° |
| 2026-05-05 18:31 | 50.07754 | 19.78358 | 785 ft | 84 kts | 257° |
| 2026-05-05 18:31 | 50.07618 | 19.77357 | 788 ft | 118 kts | 257° |
| 2026-05-05 18:32 | 50.07392 | 19.76003 | 1328 ft | 142 kts | 252° |
| 2026-05-05 18:32 | 50.07158 | 19.74377 | 2081 ft | 167 kts | 257° |
| 2026-05-05 18:32 | 50.06957 | 19.72444 | 2629 ft | 194 kts | 257° |
| 2026-05-05 18:32 | 50.06756 | 19.70244 | 3152 ft | 213 kts | 258° |
| 2026-05-05 18:33 | 50.06467 | 19.68022 | 3643 ft | 212 kts | 243° |
| 2026-05-05 18:33 | 50.05498 | 19.66345 | 4151 ft | 212 kts | 209° |
| 2026-05-05 18:33 | 50.04053 | 19.65920 | 4667 ft | 218 kts | 176° |
| 2026-05-05 18:33 | 50.02567 | 19.66532 | 5000 ft | 228 kts | 167° |
| 2026-05-05 18:34 | 50.01062 | 19.67304 | 5005 ft | 223 kts | 166° |
| 2026-05-05 18:34 | 49.99608 | 19.68061 | 5003 ft | 222 kts | 166° |
| 2026-05-05 18:34 | 49.98144 | 19.68827 | 5003 ft | 221 kts | 166° |
| 2026-05-05 18:34 | 49.96760 | 19.69919 | 5000 ft | 229 kts | 144° |
| 2026-05-05 18:35 | 49.95898 | 19.72039 | 5005 ft | 244 kts | 112° |
| 2026-05-05 18:35 | 49.95850 | 19.74724 | 5010 ft | 257 kts | 83° |
| 2026-05-05 18:35 | 49.96343 | 19.77421 | 5009 ft | 260 kts | 76° |
| 2026-05-05 18:35 | 49.96889 | 19.80102 | 5010 ft | 259 kts | 76° |
| 2026-05-05 18:36 | 49.97441 | 19.82790 | 5011 ft | 260 kts | 76° |
| 2026-05-05 18:36 | 49.97988 | 19.85454 | 5010 ft | 258 kts | 76° |
| 2026-05-05 18:36 | 49.98531 | 19.88126 | 5005 ft | 259 kts | 76° |
| 2026-05-05 18:36 | 49.99068 | 19.90771 | 5009 ft | 260 kts | 76° |
| 2026-05-05 18:37 | 49.99612 | 19.93450 | 5004 ft | 259 kts | 76° |
| 2026-05-05 18:37 | 50.00155 | 19.96142 | 5004 ft | 260 kts | 76° |
| 2026-05-05 18:37 | 50.00690 | 19.98794 | 5006 ft | 259 kts | 76° |
| 2026-05-05 18:37 | 50.01232 | 20.01468 | 5001 ft | 258 kts | 76° |
| 2026-05-05 18:38 | 50.01770 | 20.04142 | 5004 ft | 260 kts | 76° |
| 2026-05-05 18:38 | 50.02312 | 20.06833 | 5003 ft | 259 kts | 76° |
| 2026-05-05 18:38 | 50.02855 | 20.09510 | 4982 ft | 259 kts | 76° |
| 2026-05-05 18:38 | 50.03387 | 20.12168 | 4833 ft | 259 kts | 76° |
| 2026-05-05 18:39 | 50.03926 | 20.14849 | 4633 ft | 258 kts | 76° |
| 2026-05-05 18:39 | 50.04460 | 20.17509 | 4432 ft | 257 kts | 76° |
| 2026-05-05 18:39 | 50.05076 | 20.20122 | 4227 ft | 259 kts | 62° |
| 2026-05-05 18:39 | 50.06297 | 20.22113 | 4032 ft | 260 kts | 30° |
| 2026-05-05 18:40 | 50.08000 | 20.22897 | 4018 ft | 255 kts | 357° |
| 2026-05-05 18:40 | 50.09678 | 20.22261 | 4021 ft | 246 kts | 325° |
| 2026-05-05 18:40 | 50.10881 | 20.20486 | 4018 ft | 235 kts | 299° |
| 2026-05-05 18:40 | 50.11770 | 20.18383 | 4013 ft | 234 kts | 296° |
| 2026-05-05 18:41 | 50.12640 | 20.16237 | 4013 ft | 234 kts | 296° |
| 2026-05-05 18:41 | 50.13511 | 20.14088 | 4012 ft | 234 kts | 296° |
| 2026-05-05 18:41 | 50.14092 | 20.11863 | 4008 ft | 207 kts | 270° |
| 2026-05-05 18:41 | 50.13809 | 20.09812 | 4012 ft | 194 kts | 239° |
| 2026-05-05 18:42 | 50.13184 | 20.07936 | 4010 ft | 195 kts | 244° |
| 2026-05-05 18:42 | 50.12755 | 20.05909 | 4008 ft | 196 kts | 250° |
| 2026-05-05 18:42 | 50.12389 | 20.03843 | 3854 ft | 198 kts | 250° |
| 2026-05-05 18:42 | 50.12012 | 20.01815 | 3597 ft | 196 kts | 250° |
| 2026-05-05 18:43 | 50.11640 | 19.99835 | 3358 ft | 182 kts | 250° |
| 2026-05-05 18:43 | 50.11278 | 19.97922 | 3109 ft | 184 kts | 249° |
| 2026-05-05 18:43 | 50.10927 | 19.96046 | 3006 ft | 175 kts | 249° |
| 2026-05-05 18:43 | 50.10612 | 19.94365 | 2982 ft | 156 kts | 248° |
| 2026-05-05 18:44 | 50.10303 | 19.92752 | 2834 ft | 147 kts | 249° |
| 2026-05-05 18:44 | 50.10024 | 19.91275 | 2672 ft | 142 kts | 249° |
| 2026-05-05 18:44 | 50.09745 | 19.89809 | 2479 ft | 139 kts | 249° |
| 2026-05-05 18:44 | 50.09470 | 19.88363 | 2238 ft | 142 kts | 250° |
| 2026-05-05 18:45 | 50.09189 | 19.86884 | 1989 ft | 141 kts | 249° |
| 2026-05-05 18:45 | 50.08919 | 19.85454 | 1727 ft | 129 kts | 249° |
| 2026-05-05 18:45 | 50.08661 | 19.84174 | 1448 ft | 120 kts | 249° |
| 2026-05-05 18:45 | 50.08420 | 19.82911 | 1212 ft | 124 kts | 253° |
| 2026-05-05 18:46 | 50.08217 | 19.81605 | 1089 ft | 126 kts | 256° |
| 2026-05-05 18:46 | 50.08033 | 19.80328 | 891 ft | 115 kts | 257° |
| 2026-05-05 18:46 | 50.07874 | 19.79209 | 787 ft | 94 kts | 257° |
| 2026-05-05 18:46 | 50.07753 | 19.78330 | 785 ft | 75 kts | 258° |
| 2026-05-05 18:47 | 50.07607 | 19.77304 | 802 ft | 127 kts | 257° |
| 2026-05-05 18:47 | 50.07413 | 19.75769 | 1241 ft | 170 kts | 258° |
| 2026-05-05 18:47 | 50.07163 | 19.73777 | 1803 ft | 199 kts | 257° |
| 2026-05-05 18:47 | 50.06904 | 19.71543 | 2350 ft | 216 kts | 257° |
| 2026-05-05 18:48 | 50.06680 | 19.69247 | 2841 ft | 214 kts | 257° |
| 2026-05-05 18:48 | 50.06479 | 19.66918 | 2995 ft | 221 kts | 258° |
| 2026-05-05 18:48 | 50.06277 | 19.64550 | 2990 ft | 219 kts | 258° |
| 2026-05-05 18:48 | 50.06096 | 19.62243 | 3230 ft | 219 kts | 262° |
| 2026-05-05 18:49 | 50.06447 | 19.59930 | 3638 ft | 228 kts | 295° |
| 2026-05-05 18:49 | 50.07568 | 19.58102 | 4145 ft | 239 kts | 315° |
| 2026-05-05 18:49 | 50.08900 | 19.56469 | 4670 ft | 246 kts | 315° |
| 2026-05-05 18:49 | 50.10267 | 19.54805 | 5002 ft | 254 kts | 316° |
| 2026-05-05 18:50 | 50.11637 | 19.53147 | 5002 ft | 248 kts | 316° |
| 2026-05-05 18:50 | 50.12562 | 19.52026 | 5003 ft | 249 kts | 316° |
| 2026-05-05 18:50 | 50.14376 | 19.49837 | 4999 ft | 248 kts | 316° |
| 2026-05-05 18:50 | 50.15739 | 19.48191 | 4995 ft | 248 kts | 316° |
| 2026-05-05 18:51 | 50.17259 | 19.46865 | 4998 ft | 256 kts | 339° |
| 2026-05-05 18:51 | 50.19010 | 19.46398 | 5003 ft | 258 kts | 349° |
| 2026-05-05 18:51 | 50.20795 | 19.46084 | 5006 ft | 258 kts | 348° |
| 2026-05-05 18:51 | 50.22562 | 19.45591 | 5009 ft | 256 kts | 343° |
| 2026-05-05 18:52 | 50.24309 | 19.45020 | 5007 ft | 256 kts | 344° |
| 2026-05-05 18:52 | 50.26060 | 19.44508 | 5012 ft | 256 kts | 345° |
| 2026-05-05 18:52 | 50.27816 | 19.44010 | 5009 ft | 256 kts | 345° |
| 2026-05-05 18:52 | 50.29552 | 19.43499 | 5010 ft | 257 kts | 345° |
| 2026-05-05 18:53 | 50.31301 | 19.42984 | 5010 ft | 256 kts | 345° |
| 2026-05-05 18:53 | 50.33051 | 19.42470 | 4967 ft | 257 kts | 345° |
| 2026-05-05 18:53 | 50.34812 | 19.41953 | 4865 ft | 258 kts | 345° |
| 2026-05-05 18:53 | 50.36573 | 19.41444 | 4763 ft | 255 kts | 345° |
| 2026-05-05 18:54 | 50.38316 | 19.40926 | 4666 ft | 256 kts | 345° |
| 2026-05-05 18:54 | 50.40046 | 19.40417 | 4569 ft | 250 kts | 345° |
| 2026-05-05 18:54 | 50.41727 | 19.39930 | 4453 ft | 245 kts | 345° |
| 2026-05-05 18:54 | 50.43392 | 19.39405 | 4324 ft | 242 kts | 340° |
| 2026-05-05 18:55 | 50.44869 | 19.38342 | 4195 ft | 233 kts | 321° |
| 2026-05-05 18:55 | 50.46083 | 19.36713 | 4089 ft | 226 kts | 304° |
| 2026-05-05 18:55 | 50.46941 | 19.34700 | 4003 ft | 219 kts | 289° |
| 2026-05-05 18:55 | 50.47425 | 19.32441 | 3794 ft | 214 kts | 275° |
| 2026-05-05 18:56 | 50.47542 | 19.30210 | 3517 ft | 196 kts | 265° |
| 2026-05-05 18:56 | 50.47563 | 19.28158 | 3270 ft | 184 kts | 264° |
| 2026-05-05 18:56 | 50.47555 | 19.26177 | 3037 ft | 174 kts | 263° |
| 2026-05-05 18:56 | 50.47571 | 19.24366 | 2827 ft | 161 kts | 263° |
| 2026-05-05 18:57 | 50.47562 | 19.22603 | 2606 ft | 162 kts | 263° |
| 2026-05-05 18:57 | 50.47578 | 19.20830 | 2398 ft | 159 kts | 263° |
| 2026-05-05 18:57 | 50.47572 | 19.19166 | 2195 ft | 150 kts | 262° |
| 2026-05-05 18:57 | 50.47581 | 19.17556 | 2004 ft | 145 kts | 264° |
| 2026-05-05 18:58 | 50.47581 | 19.16020 | 1823 ft | 133 kts | 263° |
| 2026-05-05 18:58 | 50.47584 | 19.14587 | 1645 ft | 132 kts | 265° |
| 2026-05-05 18:58 | 50.47594 | 19.13199 | 1466 ft | 120 kts | 266° |
| 2026-05-05 18:58 | 50.47590 | 19.11927 | 1311 ft | 117 kts | 266° |
| 2026-05-05 18:59 | 50.47595 | 19.10654 | 1146 ft | 113 kts | 269° |
| 2026-05-05 18:59 | 50.47593 | 19.09466 | 1031 ft | 103 kts | 269° |
| 2026-05-05 18:59 | 50.47599 | 19.08421 | 1002 ft | 92 kts | 270° |
| 2026-05-05 18:59 | 50.47601 | 19.07547 | 995 ft | 57 kts | 270° |
| 2026-05-05 19:00 | 50.47567 | 19.07085 | 994 ft | 38 kts | 248° |
| 2026-05-05 19:00 | 50.47479 | 19.06823 | 994 ft | 12 kts | 240° |
| 2026-05-05 19:00 | 50.47448 | 19.06740 | 993 ft | 15 kts | 240° |
| 2026-05-05 19:00 | 50.47379 | 19.06620 | 992 ft | 12 kts | 169° |
| 2026-05-05 19:01 | 50.47266 | 19.06630 | 994 ft | 14 kts | 161° |
| 2026-05-05 19:01 | 50.47236 | 19.06742 | 991 ft | 10 kts | 89° |
| 2026-05-05 19:01 | 50.47237 | 19.06839 | 992 ft | 8 kts | 92° |
| 2026-05-05 19:01 | 50.47235 | 19.06931 | 993 ft | 9 kts | 91° |
| 2026-05-05 19:02 | 50.47234 | 19.07001 | 993 ft | 10 kts | 91° |
| 2026-05-05 19:02 | 50.47234 | 19.07119 | 991 ft | 11 kts | 89° |
| 2026-05-05 19:02 | 50.47235 | 19.07252 | 992 ft | 13 kts | 89° |
| 2026-05-05 19:02 | 50.47235 | 19.07397 | 994 ft | 14 kts | 90° |
| 2026-05-05 19:03 | 50.47235 | 19.07560 | 995 ft | 15 kts | 91° |
| 2026-05-05 19:03 | 50.47234 | 19.07675 | 996 ft | 16 kts | 90° |